Time;durP1;ratioP1;P1;durP2;ratioP2;P2;SDS_P1;SDS_P2;PMS_P1;PMS_P2;Temp;Humidity;BMP_temperature;BMP_pressure;BME280_temperature;BME280_humidity;BME280_pressure;Samples;Min_cycle;Max_cycle;Signal;HPM_P1;HPM_P2
2021/08/13 00:02:26;;;;;;;5.17;4.67;;;23.60;99.90;;;;;;4993817;28;20782;-77
2021/08/13 00:04:53;;;;;;;4.87;4.37;;;23.60;99.90;;;;;;4995173;28;20937;-77
2021/08/13 00:07:19;;;;;;;5.37;4.87;;;23.60;99.90;;;;;;4993512;28;20492;-77
2021/08/13 00:09:46;;;;;;;4.37;3.67;;;23.60;99.90;;;;;;4994311;28;20445;-77
2021/08/13 00:12:14;;;;;;;5.27;4.50;;;23.60;99.90;;;;;;4994126;28;20448;-76
2021/08/13 00:14:41;;;;;;;4.37;3.80;;;23.50;99.90;;;;;;4994482;28;20932;-77
2021/08/13 00:17:07;;;;;;;4.17;3.77;;;23.50;99.90;;;;;;4997678;28;20456;-77
2021/08/13 00:19:34;;;;;;;5.93;4.00;;;23.50;99.90;;;;;;4997136;28;20488;-77
2021/08/13 00:22:01;;;;;;;5.20;4.70;;;23.50;99.90;;;;;;4997979;28;20947;-78
2021/08/13 00:24:28;;;;;;;4.53;3.90;;;23.50;99.90;;;;;;4998088;28;20444;-77
2021/08/13 00:26:54;;;;;;;4.70;4.20;;;23.50;99.90;;;;;;4997593;28;20464;-77
2021/08/13 00:29:22;;;;;;;4.80;4.40;;;23.50;99.90;;;;;;4996949;28;20794;-77
2021/08/13 00:31:49;;;;;;;4.50;3.70;;;23.40;99.90;;;;;;4997690;28;20448;-78
2021/08/13 00:34:16;;;;;;;4.47;4.07;;;23.40;99.90;;;;;;4997312;28;20452;-78
2021/08/13 00:36:42;;;;;;;7.23;3.97;;;23.40;99.90;;;;;;4996101;28;20449;-77
2021/08/13 00:39:09;;;;;;;6.33;4.50;;;23.40;99.90;;;;;;4996337;28;20480;-77
2021/08/13 00:41:36;;;;;;;5.60;4.13;;;23.40;99.90;;;;;;4996902;28;20460;-76
2021/08/13 00:44:02;;;;;;;4.00;3.60;;;23.40;99.90;;;;;;4996515;28;20455;-77
2021/08/13 00:46:30;;;;;;;4.67;4.17;;;23.40;99.90;;;;;;4997097;28;20440;-77
2021/08/13 00:48:57;;;;;;;5.30;4.90;;;23.30;99.90;;;;;;4992881;28;20469;-77
2021/08/13 00:51:24;;;;;;;5.57;4.70;;;23.30;99.90;;;;;;4996619;28;20448;-77
2021/08/13 00:53:51;;;;;;;6.30;4.63;;;23.30;99.90;;;;;;4984332;28;20463;-77
2021/08/13 00:56:19;;;;;;;5.07;4.60;;;23.30;99.90;;;;;;4996539;28;20455;-76
2021/08/13 00:58:46;;;;;;;5.60;4.60;;;23.30;99.90;;;;;;4996746;28;20530;-77
2021/08/13 01:01:13;;;;;;;4.63;4.20;;;23.30;99.90;;;;;;4996201;28;20503;-77
2021/08/13 01:03:41;;;;;;;5.30;4.80;;;23.20;99.90;;;;;;4995559;28;20547;-77
2021/08/13 01:06:08;;;;;;;5.93;4.47;;;23.20;99.90;;;;;;4996106;28;21073;-77
2021/08/13 01:08:35;;;;;;;5.23;4.30;;;23.20;99.90;;;;;;4995982;28;20838;-76
2021/08/13 01:11:10;;;;;;;5.10;4.50;;;23.20;99.90;;;;;;4996233;28;20801;-77
2021/08/13 01:13:48;;;;;;;4.80;4.30;;;23.20;99.90;;;;;;4996901;28;20428;-77
2021/08/13 01:16:18;;;;;;;4.90;4.17;;;23.10;99.90;;;;;;4996612;28;21326;-77
2021/08/13 01:18:51;;;;;;;5.43;4.97;;;23.30;99.90;;;;;;4998466;28;21156;-77
2021/08/13 01:21:41;;;;;;;5.23;4.73;;;23.10;99.90;;;;;;4996196;28;20969;-78
2021/08/13 01:24:15;;;;;;;5.23;4.57;;;23.10;99.90;;;;;;4996607;28;20837;-77
2021/08/13 01:26:46;;;;;;;4.73;4.30;;;23.10;99.90;;;;;;4995525;28;20409;-77
2021/08/13 01:29:21;;;;;;;4.93;4.47;;;23.10;99.90;;;;;;4995719;28;20929;-77
2021/08/13 01:32:02;;;;;;;5.67;5.10;;;23.00;99.90;;;;;;4996836;28;20440;-77
2021/08/13 01:34:31;;;;;;;6.23;5.63;;;23.00;99.90;;;;;;4997025;28;20448;-77
2021/08/13 01:36:59;;;;;;;5.40;4.97;;;23.00;99.90;;;;;;4997942;28;20445;-77
2021/08/13 01:39:29;;;;;;;7.43;6.03;;;23.00;99.90;;;;;;4996938;28;20452;-77
2021/08/13 01:41:56;;;;;;;6.53;4.77;;;23.00;99.90;;;;;;4997607;28;20448;-77
2021/08/13 01:44:23;;;;;;;4.57;4.17;;;22.90;99.90;;;;;;4996761;28;20568;-77
2021/08/13 01:46:51;;;;;;;5.30;4.77;;;22.90;99.90;;;;;;4996389;28;20464;-77
2021/08/13 01:49:19;;;;;;;5.13;4.30;;;22.90;99.90;;;;;;4996889;28;20444;-77
2021/08/13 01:51:49;;;;;;;5.97;5.37;;;22.90;99.90;;;;;;4996110;28;20452;-77
2021/08/13 01:54:16;;;;;;;5.90;4.73;;;22.90;99.90;;;;;;4996089;28;20445;-76
2021/08/13 01:56:45;;;;;;;5.20;4.60;;;22.90;99.90;;;;;;4995938;28;20464;-77
2021/08/13 01:59:12;;;;;;;6.73;5.40;;;22.90;99.90;;;;;;4995976;28;20872;-78
2021/08/13 02:01:40;;;;;;;5.47;5.00;;;22.90;99.90;;;;;;4994841;28;20444;-76
2021/08/13 02:04:07;;;;;;;4.80;4.07;;;22.80;99.90;;;;;;4994519;28;20440;-76
2021/08/13 02:06:35;;;;;;;5.20;4.70;;;22.80;99.90;;;;;;4995476;28;20996;-77
2021/08/13 02:09:04;;;;;;;5.77;5.20;;;22.80;99.90;;;;;;4995451;28;20893;-76
2021/08/13 02:11:32;;;;;;;8.07;5.83;;;22.80;99.90;;;;;;4995386;28;20436;-76
2021/08/13 02:14:00;;;;;;;4.47;4.07;;;22.80;99.90;;;;;;4995097;28;20536;-76
2021/08/13 02:16:30;;;;;;;5.17;4.67;;;22.80;99.90;;;;;;4995291;28;20539;-76
2021/08/13 02:19:02;;;;;;;5.80;5.00;;;22.70;99.90;;;;;;4994955;28;20448;-76
2021/08/13 02:21:31;;;;;;;7.33;5.73;;;22.70;99.90;;;;;;4994352;28;20986;-76
2021/08/13 02:23:58;;;;;;;4.97;4.40;;;22.70;99.90;;;;;;4994642;28;20448;-77
2021/08/13 02:26:26;;;;;;;6.10;5.10;;;22.70;99.90;;;;;;4994742;28;20445;-76
2021/08/13 02:28:53;;;;;;;4.30;3.90;;;22.70;99.90;;;;;;4994695;28;20825;-76
2021/08/13 02:31:20;;;;;;;5.57;4.53;;;22.70;99.90;;;;;;4995341;28;20452;-77
2021/08/13 02:33:46;;;;;;;6.67;5.23;;;22.70;99.90;;;;;;4996031;28;20929;-77
2021/08/13 02:36:16;;;;;;;5.47;4.97;;;22.60;99.90;;;;;;4996338;28;20475;-77
2021/08/13 02:38:51;;;;;;;5.10;4.60;;;22.60;99.90;;;;;;4995764;28;20445;-76
2021/08/13 02:41:19;;;;;;;6.50;4.53;;;22.60;99.90;;;;;;4993884;28;20468;-77
2021/08/13 02:43:51;;;;;;;5.33;4.83;;;22.60;99.90;;;;;;4993257;28;20465;-76
2021/08/13 02:46:21;;;;;;;5.30;4.50;;;22.60;99.90;;;;;;4993358;28;20460;-76
2021/08/13 02:48:49;;;;;;;5.77;4.80;;;22.60;99.90;;;;;;4994686;28;20444;-77
2021/08/13 02:51:19;;;;;;;5.50;4.50;;;22.60;99.90;;;;;;4994620;28;20437;-77
2021/08/13 02:53:48;;;;;;;6.00;5.40;;;22.60;99.90;;;;;;4994463;28;20476;-77
2021/08/13 02:56:18;;;;;;;9.03;5.60;;;22.60;99.90;;;;;;4994162;28;20445;-77
2021/08/13 02:58:49;;;;;;;4.77;4.33;;;22.50;99.90;;;;;;4994419;28;20429;-76
2021/08/13 03:01:21;;;;;;;5.83;5.33;;;22.50;99.90;;;;;;4998020;28;20466;-78
2021/08/13 03:03:50;;;;;;;5.40;4.90;;;22.50;99.90;;;;;;4997939;28;20444;-77
2021/08/13 03:06:20;;;;;;;5.57;5.07;;;22.50;99.90;;;;;;4996485;28;20440;-77
2021/08/13 03:08:47;;;;;;;6.13;5.53;;;22.50;99.90;;;;;;4995505;28;20476;-78
2021/08/13 03:11:16;;;;;;;5.90;4.80;;;22.50;99.90;;;;;;4994423;28;20448;-77
2021/08/13 03:13:43;;;;;;;5.77;4.80;;;22.50;99.90;;;;;;4994023;28;20455;-77
2021/08/13 03:16:11;;;;;;;5.90;5.17;;;22.40;99.90;;;;;;4993675;28;20937;-77
2021/08/13 03:18:39;;;;;;;5.63;5.10;;;22.40;99.90;;;;;;4994196;28;20448;-77
2021/08/13 03:21:07;;;;;;;6.17;5.57;;;22.40;99.90;;;;;;4994045;28;20487;-77
2021/08/13 03:23:33;;;;;;;4.87;4.43;;;22.40;99.90;;;;;;4994083;28;20455;-77
2021/08/13 03:26:01;;;;;;;6.40;5.17;;;22.40;99.90;;;;;;4993853;28;20933;-77
2021/08/13 03:28:28;;;;;;;6.47;4.73;;;22.40;99.90;;;;;;4993832;28;20449;-77
2021/08/13 03:30:54;;;;;;;5.30;4.80;;;22.30;99.90;;;;;;4994056;28;20437;-77
2021/08/13 03:33:23;;;;;;;6.17;4.47;;;22.30;99.90;;;;;;4996814;28;20464;-78
2021/08/13 03:35:51;;;;;;;5.43;4.53;;;22.30;99.90;;;;;;4995716;28;20968;-77
2021/08/13 03:38:17;;;;;;;8.55;6.05;;;22.30;99.90;;;;;;4995947;28;20567;-78
2021/08/13 03:40:44;;;;;;;7.20;5.47;;;22.30;99.90;;;;;;4996368;28;20579;-77
2021/08/13 03:43:11;;;;;;;6.03;5.20;;;22.30;99.90;;;;;;4995686;28;20480;-77
2021/08/13 03:45:38;;;;;;;4.97;4.57;;;22.30;99.90;;;;;;4996720;28;20798;-77
2021/08/13 03:48:05;;;;;;;5.50;4.90;;;22.20;99.90;;;;;;4997117;28;20200;-77
2021/08/13 03:50:33;;;;;;;4.90;4.50;;;22.20;99.90;;;;;;4999705;28;20449;-78
2021/08/13 03:53:00;;;;;;;5.50;4.93;;;22.20;99.90;;;;;;5003786;28;20455;-77
2021/08/13 03:55:27;;;;;;;5.87;4.83;;;22.20;99.90;;;;;;5003098;28;20449;-77
2021/08/13 03:57:54;;;;;;;5.60;4.50;;;22.20;99.90;;;;;;5001784;28;20472;-77
2021/08/13 04:00:20;;;;;;;5.73;5.23;;;22.20;99.90;;;;;;4996259;28;20480;-77
2021/08/13 04:02:47;;;;;;;5.20;4.70;;;22.20;99.90;;;;;;5004470;28;20455;-77
2021/08/13 04:05:14;;;;;;;5.30;4.80;;;22.10;99.90;;;;;;5003610;28;20208;-77
2021/08/13 04:07:42;;;;;;;5.85;5.13;;;22.10;99.90;;;;;;5003661;28;20224;-77
2021/08/13 04:10:09;;;;;;;5.38;4.40;;;22.10;99.90;;;;;;5002800;28;20209;-77
2021/08/13 04:12:36;;;;;;;6.23;5.60;;;22.10;99.90;;;;;;5002092;28;20605;-77
2021/08/13 04:15:03;;;;;;;5.65;4.57;;;22.10;99.90;;;;;;5002287;28;20448;-77
2021/08/13 04:17:29;;;;;;;6.15;4.75;;;22.00;99.90;;;;;;5002705;28;20284;-78
2021/08/13 04:19:56;;;;;;;5.55;5.05;;;22.00;99.90;;;;;;5005849;28;20197;-78
2021/08/13 04:22:23;;;;;;;7.15;5.45;;;22.00;99.90;;;;;;5005660;28;20221;-78
2021/08/13 04:24:52;;;;;;;6.20;5.60;;;22.00;99.90;;;;;;5005295;28;20189;-78
2021/08/13 04:27:19;;;;;;;5.47;4.93;;;22.00;99.90;;;;;;5004152;28;20220;-78
2021/08/13 04:29:46;;;;;;;6.70;5.18;;;22.00;99.90;;;;;;5003580;28;20440;-77
2021/08/13 04:32:13;;;;;;;5.70;5.00;;;22.00;99.90;;;;;;5004185;28;20204;-77
2021/08/13 04:34:39;;;;;;;5.68;5.00;;;22.00;99.90;;;;;;5000968;28;20201;-78
2021/08/13 04:37:06;;;;;;;5.68;4.90;;;22.00;99.90;;;;;;5003973;28;20201;-78
2021/08/13 04:39:33;;;;;;;5.45;4.95;;;21.90;99.90;;;;;;5003604;28;20717;-79
2021/08/13 04:42:01;;;;;;;6.37;4.80;;;21.90;99.90;;;;;;5007842;28;20221;-78
2021/08/13 04:44:28;;;;;;;8.98;5.13;;;21.90;99.90;;;;;;5006694;28;20453;-78
2021/08/13 04:46:54;;;;;;;6.05;5.50;;;22.00;99.90;;;;;;5008782;28;20193;-79
2021/08/13 04:49:21;;;;;;;5.97;4.95;;;21.90;99.90;;;;;;5008427;28;20216;-79
2021/08/13 04:51:48;;;;;;;6.88;5.20;;;21.90;99.90;;;;;;5007617;28;20197;-79
2021/08/13 04:54:15;;;;;;;6.28;5.68;;;21.90;99.90;;;;;;5007699;28;20719;-79
2021/08/13 04:56:41;;;;;;;5.00;4.50;;;21.90;99.90;;;;;;5009135;28;20199;-78
2021/08/13 04:59:09;;;;;;;6.38;5.78;;;21.90;99.90;;;;;;5011342;28;20204;-79
2021/08/13 05:01:36;;;;;;;5.70;4.57;;;21.80;99.90;;;;;;5005870;28;20236;-78
2021/08/13 05:04:04;;;;;;;6.22;5.20;;;21.80;99.90;;;;;;5004900;28;20198;-79
2021/08/13 05:06:30;;;;;;;6.38;4.93;;;21.80;99.90;;;;;;5008180;28;20201;-79
2021/08/13 05:08:57;;;;;;;5.60;4.80;;;21.80;99.90;;;;;;5009313;28;20232;-79
2021/08/13 05:11:24;;;;;;;6.53;5.65;;;21.80;99.90;;;;;;5010050;28;20421;-79
2021/08/13 05:13:50;;;;;;;5.60;5.10;;;21.90;99.90;;;;;;5009878;28;20201;-78
2021/08/13 05:16:18;;;;;;;6.25;5.65;;;21.80;99.90;;;;;;5009916;28;20573;-79
2021/08/13 05:18:45;;;;;;;5.93;5.05;;;21.80;99.90;;;;;;5006324;28;20194;-79
2021/08/13 05:21:12;;;;;;;5.95;4.63;;;21.80;99.90;;;;;;5006086;28;20241;-79
2021/08/13 05:23:39;;;;;;;5.50;5.00;;;21.80;99.90;;;;;;5007169;28;20578;-79
2021/08/13 05:26:06;;;;;;;6.05;5.53;;;21.80;99.90;;;;;;5006737;28;20200;-79
2021/08/13 05:28:32;;;;;;;5.40;4.90;;;21.70;99.90;;;;;;5007038;28;20197;-79
2021/08/13 05:30:59;;;;;;;5.00;4.53;;;21.70;99.90;;;;;;5005430;28;20208;-79
2021/08/13 05:33:27;;;;;;;8.23;5.80;;;21.70;99.90;;;;;;5004360;28;20198;-79
2021/08/13 05:35:54;;;;;;;5.40;5.00;;;21.70;99.90;;;;;;5000904;28;20578;-78
2021/08/13 05:38:21;;;;;;;5.22;4.75;;;21.70;99.90;;;;;;5000470;28;20238;-78
2021/08/13 05:40:47;;;;;;;8.25;5.15;;;21.70;99.90;;;;;;5005420;28;20229;-79
2021/08/13 05:43:14;;;;;;;6.80;6.15;;;21.70;99.90;;;;;;5006300;28;20201;-79
2021/08/13 05:45:41;;;;;;;7.05;4.68;;;21.70;99.90;;;;;;5006524;28;20205;-79
2021/08/13 05:48:07;;;;;;;5.57;5.07;;;21.90;99.90;;;;;;5005845;28;20224;-78
2021/08/13 05:50:36;;;;;;;7.82;5.45;;;22.00;99.90;;;;;;5007179;28;20448;-78
2021/08/13 05:53:03;;;;;;;4.60;4.03;;;22.20;99.90;;;;;;5007165;28;20198;-79
2021/08/13 05:55:30;;;;;;;5.70;4.80;;;22.40;99.90;;;;;;5006472;28;20464;-79
2021/08/13 05:57:56;;;;;;;5.00;4.57;;;22.50;99.90;;;;;;5008624;28;20445;-79
2021/08/13 06:00:23;;;;;;;6.27;5.10;;;22.70;99.90;;;;;;5005770;28;20455;-79
2021/08/13 06:02:54;;;;;;;6.13;5.20;;;22.90;99.90;;;;;;5002846;28;20480;-79
2021/08/13 06:05:21;;;;;;;5.43;4.83;;;23.00;99.90;;;;;;5006018;28;20449;-79
2021/08/13 06:07:50;;;;;;;6.23;5.63;;;23.20;99.90;;;;;;5007274;28;20500;-79
2021/08/13 06:10:17;;;;;;;5.53;5.00;;;23.20;99.90;;;;;;5007905;28;20469;-79
2021/08/13 06:12:43;;;;;;;6.60;4.47;;;23.30;99.90;;;;;;5007263;28;20943;-79
2021/08/13 06:15:12;;;;;;;8.43;4.53;;;23.30;99.90;;;;;;5007043;28;20452;-78
2021/08/13 06:17:40;;;;;;;5.50;5.00;;;23.20;99.90;;;;;;5006578;28;20452;-79
2021/08/13 06:20:09;;;;;;;5.40;4.37;;;23.30;99.90;;;;;;5002292;28;20905;-77
2021/08/13 06:22:36;;;;;;;7.83;4.47;;;23.40;99.90;;;;;;4997735;28;20487;-82
2021/08/13 06:25:05;;;;;;;5.20;4.60;;;23.40;99.90;;;;;;4997759;28;20464;-79
2021/08/13 06:27:33;;;;;;;5.43;4.73;;;23.40;99.90;;;;;;4998323;28;20469;-79
2021/08/13 06:30:00;;;;;;;4.77;4.27;;;23.40;99.90;;;;;;4999733;28;20448;-78
2021/08/13 06:32:26;;;;;;;4.87;4.43;;;23.50;99.90;;;;;;4998299;28;20449;-79
2021/08/13 06:34:53;;;;;;;5.67;5.07;;;23.70;99.90;;;;;;4998274;28;20449;-79
2021/08/13 06:37:20;;;;;;;5.60;5.10;;;23.80;99.90;;;;;;5000780;28;20944;-79
2021/08/13 06:39:46;;;;;;;4.67;4.17;;;23.90;99.90;;;;;;5017623;28;20455;-78
2021/08/13 06:42:14;;;;;;;5.27;4.87;;;23.90;99.90;;;;;;5016610;28;20478;-79
2021/08/13 06:44:41;;;;;;;5.17;4.63;;;24.00;99.90;;;;;;5017780;28;20444;-79
2021/08/13 06:47:08;;;;;;;3.63;3.30;;;24.00;99.90;;;;;;5017038;28;20440;-78
2021/08/13 06:49:35;;;;;;;6.13;4.40;;;24.00;99.90;;;;;;5006370;28;20464;-79
2021/08/13 06:52:02;;;;;;;4.73;4.33;;;24.00;99.90;;;;;;4996361;28;20444;-78
2021/08/13 06:54:29;;;;;;;4.93;4.43;;;24.00;99.90;;;;;;4996893;28;20444;-79
2021/08/13 06:56:58;;;;;;;4.67;4.27;;;24.00;99.90;;;;;;4996039;28;20449;-79
2021/08/13 06:59:26;;;;;;;4.80;4.07;;;24.00;99.90;;;;;;4995405;28;20480;-78
2021/08/13 07:01:53;;;;;;;4.03;3.73;;;24.00;99.90;;;;;;4995855;28;20819;-79
2021/08/13 07:04:19;;;;;;;5.67;5.13;;;24.00;99.90;;;;;;4996498;28;20451;-79
2021/08/13 07:06:46;;;;;;;5.03;4.53;;;24.00;99.90;;;;;;4996017;28;20445;-79
2021/08/13 07:09:13;;;;;;;4.83;4.10;;;24.10;99.90;;;;;;4995076;28;20457;-80
2021/08/13 07:11:40;;;;;;;5.17;4.00;;;24.00;99.90;;;;;;4994479;28;20957;-80
2021/08/13 07:14:06;;;;;;;5.47;4.90;;;24.00;99.90;;;;;;4996634;28;20455;-78
2021/08/13 07:16:34;;;;;;;5.53;4.03;;;24.00;99.90;;;;;;4995706;28;20949;-79
2021/08/13 07:19:01;;;;;;;4.73;4.40;;;24.00;99.90;;;;;;4997225;28;20449;-79
2021/08/13 07:21:28;;;;;;;5.80;4.53;;;24.00;99.90;;;;;;4996790;28;20475;-79
2021/08/13 07:23:55;;;;;;;5.90;5.40;;;24.00;99.90;;;;;;4996692;28;20464;-79
2021/08/13 07:26:21;;;;;;;7.67;5.33;;;24.10;99.90;;;;;;4996946;28;20448;-78
2021/08/13 07:28:48;;;;;;;4.50;4.10;;;24.00;99.90;;;;;;4997940;28;20449;-79
2021/08/13 07:31:15;;;;;;;4.17;3.80;;;24.10;99.90;;;;;;4997531;28;20467;-78
2021/08/13 07:33:43;;;;;;;4.77;4.27;;;24.20;99.90;;;;;;4996438;28;20441;-78
2021/08/13 07:36:10;;;;;;;4.07;3.67;;;24.30;99.90;;;;;;4997411;28;20452;-79
2021/08/13 07:38:40;;;;;;;4.73;4.33;;;24.20;99.90;;;;;;4996266;28;20488;-79
2021/08/13 07:41:07;;;;;;;6.63;4.83;;;24.20;99.90;;;;;;4994168;28;20457;-78
2021/08/13 07:43:34;;;;;;;5.77;5.20;;;24.20;99.90;;;;;;4979601;28;20453;-78
2021/08/13 07:46:00;;;;;;;6.27;5.63;;;24.20;99.90;;;;;;4995746;28;20551;-78
2021/08/13 07:48:27;;;;;;;9.70;6.70;;;24.30;99.90;;;;;;4999687;28;20971;-77
2021/08/13 07:50:55;;;;;;;6.30;5.70;;;24.30;99.90;;;;;;4996390;28;20472;-76
2021/08/13 07:53:22;;;;;;;7.90;5.60;;;24.30;99.90;;;;;;4998325;28;20814;-78
2021/08/13 07:55:49;;;;;;;8.60;5.70;;;24.30;99.90;;;;;;4998588;28;20456;-78
2021/08/13 07:58:16;;;;;;;6.60;5.70;;;24.40;99.90;;;;;;4997936;28;20522;-78
2021/08/13 08:00:42;;;;;;;7.90;5.07;;;24.40;99.90;;;;;;4984364;28;20487;-78
2021/08/13 08:03:09;;;;;;;6.83;5.47;;;24.50;99.90;;;;;;4986391;28;20492;-78
2021/08/13 08:05:36;;;;;;;6.27;5.67;;;24.50;99.90;;;;;;4998222;28;20440;-78
2021/08/13 08:08:05;;;;;;;8.80;7.33;;;24.50;99.90;;;;;;4998122;28;20464;-78
2021/08/13 08:10:32;;;;;;;6.30;5.70;;;24.60;99.90;;;;;;4997959;28;20447;-79
2021/08/13 08:12:59;;;;;;;6.40;5.20;;;24.70;99.90;;;;;;4997839;28;20440;-77
2021/08/13 08:15:25;;;;;;;5.60;5.10;;;24.70;99.90;;;;;;4998799;28;20959;-78
2021/08/13 08:17:52;;;;;;;7.07;6.10;;;24.80;99.90;;;;;;4996841;28;20483;-78
2021/08/13 08:20:19;;;;;;;7.60;5.37;;;24.90;99.90;;;;;;4993881;28;20983;-77
2021/08/13 08:22:46;;;;;;;6.30;5.70;;;25.00;99.90;;;;;;4995981;28;20524;-77
2021/08/13 08:25:14;;;;;;;6.33;5.70;;;25.00;99.90;;;;;;4994348;28;20448;-78
2021/08/13 08:27:41;;;;;;;6.20;5.70;;;25.10;99.90;;;;;;4999006;28;20808;-78
2021/08/13 08:30:08;;;;;;;7.13;6.07;;;25.10;99.90;;;;;;4998460;28;20801;-78
2021/08/13 08:32:35;;;;;;;7.10;5.57;;;25.10;99.90;;;;;;4997741;28;20921;-78
2021/08/13 08:35:02;;;;;;;7.40;5.80;;;25.10;99.90;;;;;;4998366;28;20449;-78
2021/08/13 08:37:28;;;;;;;6.33;5.70;;;25.10;99.90;;;;;;5014512;28;20933;-78
2021/08/13 08:39:55;;;;;;;6.80;6.20;;;25.10;99.90;;;;;;5001002;28;20456;-78
2021/08/13 08:42:23;;;;;;;6.07;5.47;;;25.10;99.90;;;;;;4999719;28;20479;-78
2021/08/13 08:44:50;;;;;;;6.50;5.90;;;25.20;99.90;;;;;;5001412;28;20481;-77
2021/08/13 08:47:20;;;;;;;7.80;5.90;;;25.20;99.90;;;;;;4998899;28;20456;-81
2021/08/13 08:49:50;;;;;;;6.83;6.03;;;25.20;99.90;;;;;;4999349;28;20440;-77
2021/08/13 08:52:19;;;;;;;6.43;5.70;;;25.20;99.90;;;;;;5000063;28;20479;-80
2021/08/13 08:54:46;;;;;;;8.20;6.70;;;25.30;99.90;;;;;;4999836;28;20472;-79
2021/08/13 08:57:14;;;;;;;8.53;5.63;;;25.30;99.90;;;;;;5000530;28;20456;-78
2021/08/13 08:59:42;;;;;;;6.77;5.53;;;25.40;99.90;;;;;;5000433;28;20448;-79
2021/08/13 09:02:09;;;;;;;9.90;5.53;;;25.50;99.90;;;;;;5000570;28;20471;-79
2021/08/13 09:04:35;;;;;;;7.53;6.10;;;25.50;99.90;;;;;;4996849;28;20467;-79
2021/08/13 09:07:02;;;;;;;8.10;6.30;;;25.60;99.90;;;;;;4981062;28;20449;-79
2021/08/13 09:09:29;;;;;;;7.37;6.67;;;25.70;99.90;;;;;;4995337;28;20457;-78
2021/08/13 09:11:57;;;;;;;6.67;6.03;;;25.70;99.90;;;;;;4999873;28;20440;-78
2021/08/13 09:14:37;;;;;;;7.87;6.83;;;25.70;99.90;;;;;;5000298;28;21029;-79
2021/08/13 09:17:06;;;;;;;7.73;5.30;;;25.70;99.90;;;;;;5000317;28;20475;-78
2021/08/13 09:19:41;;;;;;;7.20;5.70;;;25.80;99.90;;;;;;4997309;28;21244;-79
2021/08/13 09:22:09;;;;;;;6.67;6.07;;;25.80;99.90;;;;;;4980277;28;20481;-79
2021/08/13 09:24:40;;;;;;;6.87;6.17;;;25.90;99.90;;;;;;4988454;28;20453;-80
2021/08/13 09:27:19;;;;;;;8.43;5.77;;;25.90;99.90;;;;;;4999777;28;20444;-79
2021/08/13 09:30:08;;;;;;;8.37;5.93;;;25.90;99.90;;;;;;4999769;28;20468;-79
2021/08/13 09:32:36;;;;;;;7.70;6.87;;;25.90;99.90;;;;;;4999228;28;20460;-78
2021/08/13 09:35:04;;;;;;;7.53;6.83;;;25.90;99.90;;;;;;4999228;28;20441;-80
2021/08/13 09:37:31;;;;;;;7.40;6.20;;;26.00;99.90;;;;;;4999673;28;20448;-79
2021/08/13 09:39:58;;;;;;;7.93;7.13;;;25.90;99.90;;;;;;4999177;28;20472;-78
2021/08/13 09:42:34;;;;;;;7.40;6.10;;;25.90;99.90;;;;;;4999399;28;20480;-80
2021/08/13 09:45:02;;;;;;;8.07;7.27;;;25.80;99.90;;;;;;4999135;28;20428;-79
2021/08/13 09:47:42;;;;;;;8.20;7.50;;;25.80;99.90;;;;;;4998488;28;20511;-79
2021/08/13 09:50:10;;;;;;;7.10;6.47;;;25.80;99.90;;;;;;4999266;28;20432;-79
2021/08/13 09:52:37;;;;;;;7.37;6.67;;;25.80;99.90;;;;;;4997151;28;20467;-79
2021/08/13 09:55:11;;;;;;;8.50;7.70;;;25.80;99.90;;;;;;4997935;28;20543;-78
2021/08/13 09:57:43;;;;;;;8.23;6.87;;;25.80;99.90;;;;;;4999110;28;20921;-79
2021/08/13 10:00:12;;;;;;;7.63;6.70;;;25.80;99.90;;;;;;4999113;28;20456;-78
2021/08/13 10:02:42;;;;;;;7.90;6.97;;;25.80;99.90;;;;;;4998825;28;20535;-78
2021/08/13 10:05:20;;;;;;;8.17;6.97;;;25.70;99.90;;;;;;4998685;28;20461;-77
2021/08/13 10:07:48;;;;;;;11.37;8.53;;;25.70;99.90;;;;;;4999157;28;20480;-78
2021/08/13 10:10:16;;;;;;;8.60;6.80;;;25.70;99.90;;;;;;4998852;28;20463;-78
2021/08/13 10:12:45;;;;;;;10.23;7.67;;;25.70;99.90;;;;;;4998209;28;20480;-79
2021/08/13 10:15:12;;;;;;;10.80;8.23;;;25.70;99.90;;;;;;4998001;28;20444;-79
2021/08/13 10:17:41;;;;;;;9.50;7.87;;;25.70;99.90;;;;;;4997962;28;20474;-79
2021/08/13 10:20:08;;;;;;;9.80;8.40;;;25.80;99.90;;;;;;4998038;28;20468;-78
2021/08/13 10:22:36;;;;;;;8.13;7.33;;;25.80;99.90;;;;;;4997272;28;20487;-78
2021/08/13 10:25:03;;;;;;;9.90;8.90;;;25.90;99.90;;;;;;4997719;28;20515;-79
2021/08/13 10:27:32;;;;;;;11.33;8.77;;;25.90;99.90;;;;;;4998622;28;20453;-78
2021/08/13 10:29:59;;;;;;;9.00;8.10;;;25.90;99.90;;;;;;4998038;28;20448;-78
2021/08/13 10:32:26;;;;;;;9.50;8.50;;;25.90;99.90;;;;;;4997660;28;20818;-79
2021/08/13 10:34:55;;;;;;;10.07;8.60;;;25.90;99.90;;;;;;4997354;28;20988;-79
2021/08/13 10:37:25;;;;;;;7.93;7.20;;;25.90;99.90;;;;;;4997476;28;20845;-78
2021/08/13 10:39:55;;;;;;;10.90;7.60;;;25.90;99.90;;;;;;4997746;28;20444;-79
2021/08/13 10:42:24;;;;;;;9.33;7.90;;;25.90;99.90;;;;;;4997895;28;20483;-79
2021/08/13 10:44:54;;;;;;;7.93;7.13;;;25.90;99.90;;;;;;4997513;28;20456;-79
2021/08/13 10:47:29;;;;;;;8.00;7.30;;;25.90;99.90;;;;;;4997481;28;20921;-79
2021/08/13 10:49:58;;;;;;;8.67;7.87;;;25.90;99.90;;;;;;4997989;28;20436;-79
2021/08/13 10:52:36;;;;;;;8.93;7.57;;;25.90;99.90;;;;;;4997906;28;20448;-79
2021/08/13 10:55:04;;;;;;;10.03;7.73;;;25.90;99.90;;;;;;4997669;28;20440;-78
2021/08/13 10:57:55;;;;;;;12.33;7.80;;;25.90;99.90;;;;;;4995425;28;20770;-79
2021/08/13 11:00:22;;;;;;;8.97;8.10;;;25.90;99.90;;;;;;4995356;28;20456;-79
2021/08/13 11:03:18;;;;;;;9.13;8.10;;;25.90;99.90;;;;;;4996410;28;20488;-77
2021/08/13 11:05:54;;;;;;;10.30;9.23;;;25.90;99.90;;;;;;4995853;28;20507;-79
2021/08/13 11:08:21;;;;;;;8.70;7.80;;;25.90;99.90;;;;;;4995879;28;20479;-78
2021/08/13 11:10:58;;;;;;;11.40;8.60;;;25.90;99.90;;;;;;5004826;28;20451;-79
2021/08/13 11:13:26;;;;;;;12.00;8.70;;;25.90;99.90;;;;;;4977178;28;20451;-76
2021/08/13 11:15:54;;;;;;;7.70;6.73;;;25.90;99.90;;;;;;4989531;28;20492;-78
2021/08/13 11:18:29;;;;;;;10.00;8.30;;;25.90;99.90;;;;;;4996550;28;20592;-81
2021/08/13 11:20:58;;;;;;;9.10;7.73;;;25.90;99.90;;;;;;4994839;28;20457;-78
2021/08/13 11:23:25;;;;;;;8.40;7.60;;;25.90;99.90;;;;;;4993740;28;20469;-77
2021/08/13 11:25:54;;;;;;;15.53;8.10;;;26.00;99.90;;;;;;4994187;28;20449;-77
2021/08/13 11:28:22;;;;;;;8.03;7.07;;;25.90;99.90;;;;;;4993709;28;20457;-77
2021/08/13 11:30:51;;;;;;;8.30;7.50;;;25.90;99.90;;;;;;4994138;28;20453;-78
2021/08/13 11:33:41;;;;;;;9.33;6.63;;;25.90;99.90;;;;;;4994121;28;20979;-78
2021/08/13 11:36:10;;;;;;;11.57;7.67;;;25.90;99.90;;;;;;4993994;28;20452;-78
2021/08/13 11:39:02;;;;;;;8.20;6.90;;;25.90;99.90;;;;;;4993435;28;20452;-78
2021/08/13 11:41:29;;;;;;;8.20;7.00;;;25.90;99.90;;;;;;4984101;28;20549;-78
2021/08/13 11:43:58;;;;;;;7.40;6.70;;;26.00;99.90;;;;;;4994192;28;20495;-77
2021/08/13 11:46:32;;;;;;;6.20;5.63;;;26.10;99.90;;;;;;5000503;28;20452;-78
2021/08/13 11:49:15;;;;;;;7.33;6.63;;;26.00;99.90;;;;;;4994878;28;20766;-78
2021/08/13 11:51:45;;;;;;;6.77;6.07;;;26.10;99.90;;;;;;4993752;28;20457;-78
2021/08/13 11:54:24;;;;;;;5.57;5.07;;;26.00;99.90;;;;;;4994050;28;20444;-78
2021/08/13 11:56:51;;;;;;;9.83;6.60;;;26.00;99.90;;;;;;4986064;28;20858;-78
2021/08/13 11:59:18;;;;;;;9.87;6.70;;;26.10;99.90;;;;;;4994493;28;20459;-78
2021/08/13 12:01:49;;;;;;;7.53;6.83;;;26.10;99.90;;;;;;4994284;28;20455;-77
2021/08/13 12:04:18;;;;;;;6.80;5.80;;;26.00;99.90;;;;;;4994172;28;20488;-78
2021/08/13 12:07:01;;;;;;;6.30;5.70;;;26.00;99.90;;;;;;4994402;28;20953;-78
2021/08/13 12:09:32;;;;;;;7.27;6.57;;;26.00;99.90;;;;;;4994059;28;20818;-78
2021/08/13 12:11:59;;;;;;;10.33;5.83;;;26.00;99.90;;;;;;4995618;28;20444;-77
2021/08/13 12:14:25;;;;;;;7.60;6.00;;;26.00;99.90;;;;;;4997003;28;20968;-78
2021/08/13 12:16:53;;;;;;;6.10;5.60;;;26.00;99.90;;;;;;4987576;28;20444;-77
2021/08/13 12:19:21;;;;;;;13.80;7.20;;;26.00;99.90;;;;;;4997779;28;20453;-77
2021/08/13 12:21:57;;;;;;;19.70;9.00;;;25.90;99.90;;;;;;4996340;28;20453;-78
2021/08/13 12:24:40;;;;;;;12.83;7.33;;;26.00;99.90;;;;;;4996862;28;20472;-77
2021/08/13 12:27:09;;;;;;;8.43;6.57;;;25.90;99.90;;;;;;4986337;28;20446;-77
2021/08/13 12:29:38;;;;;;;11.50;6.90;;;26.00;99.90;;;;;;4998068;28;20444;-78
2021/08/13 12:32:06;;;;;;;8.37;6.87;;;26.00;99.90;;;;;;4997738;28;20457;-77
2021/08/13 12:34:35;;;;;;;8.30;7.13;;;26.30;99.90;;;;;;4998645;28;20967;-78
2021/08/13 12:37:07;;;;;;;8.13;5.50;;;26.40;99.90;;;;;;4997931;28;20827;-78
2021/08/13 12:39:39;;;;;;;6.33;5.03;;;26.40;99.90;;;;;;4997686;28;20453;-78
2021/08/13 12:42:08;;;;;;;7.20;5.30;;;26.40;99.90;;;;;;4997812;28;20436;-78
2021/08/13 12:44:35;;;;;;;6.20;5.60;;;26.40;99.90;;;;;;5000627;28;20483;-77
2021/08/13 12:47:03;;;;;;;8.20;5.70;;;26.40;99.90;;;;;;4999873;28;20444;-77
2021/08/13 12:49:30;;;;;;;7.23;5.57;;;26.40;99.90;;;;;;4998437;28;20456;-78
2021/08/13 12:52:10;;;;;;;5.10;4.60;;;26.40;99.90;;;;;;4998002;28;20448;-77
2021/08/13 12:54:40;;;;;;;5.77;4.93;;;26.40;99.90;;;;;;4997428;28;20483;-77